sensor_id;sensor_type;location;lat;lon;timestamp;P1;durP1;ratioP1;P2;durP2;ratioP2
60472;SDS011;46318;52.716;6.444;2023-08-06T00:02:01;11.88;;;10.70;;
60472;SDS011;46318;52.716;6.444;2023-08-06T00:04:28;11.73;;;10.73;;
60472;SDS011;46318;52.716;6.444;2023-08-06T00:06:56;12.05;;;10.88;;
60472;SDS011;46318;52.716;6.444;2023-08-06T00:09:22;11.68;;;10.57;;
60472;SDS011;46318;52.716;6.444;2023-08-06T00:11:48;11.90;;;10.90;;
60472;SDS011;46318;52.716;6.444;2023-08-06T00:14:14;12.65;;;11.43;;
60472;SDS011;46318;52.716;6.444;2023-08-06T00:16:45;11.15;;;10.15;;
60472;SDS011;46318;52.716;6.444;2023-08-06T00:19:11;9.90;;;9.00;;
60472;SDS011;46318;52.716;6.444;2023-08-06T00:21:37;11.90;;;10.70;;
60472;SDS011;46318;52.716;6.444;2023-08-06T00:24:03;11.38;;;10.20;;
60472;SDS011;46318;52.716;6.444;2023-08-06T00:26:32;10.77;;;9.70;;
60472;SDS011;46318;52.716;6.444;2023-08-06T00:28:58;11.98;;;10.75;;
60472;SDS011;46318;52.716;6.444;2023-08-06T00:31:24;10.50;;;9.50;;
60472;SDS011;46318;52.716;6.444;2023-08-06T00:33:50;11.70;;;10.50;;
60472;SDS011;46318;52.716;6.444;2023-08-06T00:36:16;10.70;;;9.70;;
60472;SDS011;46318;52.716;6.444;2023-08-06T00:38:44;11.30;;;9.30;;
60472;SDS011;46318;52.716;6.444;2023-08-06T00:41:10;11.30;;;10.20;;
60472;SDS011;46318;52.716;6.444;2023-08-06T00:43:36;11.52;;;10.00;;
60472;SDS011;46318;52.716;6.444;2023-08-06T00:46:02;12.10;;;10.80;;
60472;SDS011;46318;52.716;6.444;2023-08-06T00:48:28;10.50;;;9.45;;
60472;SDS011;46318;52.716;6.444;2023-08-06T00:50:54;9.93;;;8.93;;
60472;SDS011;46318;52.716;6.444;2023-08-06T00:53:20;11.52;;;10.48;;
60472;SDS011;46318;52.716;6.444;2023-08-06T00:55:46;9.90;;;8.88;;
60472;SDS011;46318;52.716;6.444;2023-08-06T00:58:13;10.70;;;9.68;;
60472;SDS011;46318;52.716;6.444;2023-08-06T01:00:41;11.70;;;10.60;;
60472;SDS011;46318;52.716;6.444;2023-08-06T01:03:07;10.75;;;9.10;;
60472;SDS011;46318;52.716;6.444;2023-08-06T01:05:33;12.00;;;10.77;;
60472;SDS011;46318;52.716;6.444;2023-08-06T01:08:25;12.13;;;10.23;;
60472;SDS011;46318;52.716;6.444;2023-08-06T01:14:40;11.95;;;8.77;;
60472;SDS011;46318;52.716;6.444;2023-08-06T01:17:39;9.88;;;8.55;;
60472;SDS011;46318;52.716;6.444;2023-08-06T01:20:06;10.52;;;9.57;;
60472;SDS011;46318;52.716;6.444;2023-08-06T01:22:32;12.38;;;10.70;;
60472;SDS011;46318;52.716;6.444;2023-08-06T01:24:58;12.05;;;10.30;;
60472;SDS011;46318;52.716;6.444;2023-08-06T01:27:28;11.57;;;10.55;;
60472;SDS011;46318;52.716;6.444;2023-08-06T01:35:23;10.30;;;8.55;;
60472;SDS011;46318;52.716;6.444;2023-08-06T01:37:52;11.82;;;10.63;;
60472;SDS011;46318;52.716;6.444;2023-08-06T01:40:19;13.65;;;9.90;;
60472;SDS011;46318;52.716;6.444;2023-08-06T01:42:45;13.00;;;11.00;;
60472;SDS011;46318;52.716;6.444;2023-08-06T01:45:11;11.65;;;10.20;;
60472;SDS011;46318;52.716;6.444;2023-08-06T01:47:37;12.05;;;10.90;;
60472;SDS011;46318;52.716;6.444;2023-08-06T01:50:03;11.57;;;10.48;;
60472;SDS011;46318;52.716;6.444;2023-08-06T01:52:29;12.73;;;11.50;;
60472;SDS011;46318;52.716;6.444;2023-08-06T01:54:55;13.85;;;12.45;;
60472;SDS011;46318;52.716;6.444;2023-08-06T01:57:21;13.23;;;10.65;;
60472;SDS011;46318;52.716;6.444;2023-08-06T01:59:47;13.60;;;12.20;;
60472;SDS011;46318;52.716;6.444;2023-08-06T02:02:13;12.68;;;10.52;;
60472;SDS011;46318;52.716;6.444;2023-08-06T02:04:42;12.10;;;10.90;;
60472;SDS011;46318;52.716;6.444;2023-08-06T02:07:08;12.15;;;11.00;;
60472;SDS011;46318;52.716;6.444;2023-08-06T02:09:37;13.13;;;11.82;;
60472;SDS011;46318;52.716;6.444;2023-08-06T02:12:03;13.98;;;11.88;;
60472;SDS011;46318;52.716;6.444;2023-08-06T02:14:29;12.80;;;11.00;;
60472;SDS011;46318;52.716;6.444;2023-08-06T02:16:55;12.40;;;11.20;;
60472;SDS011;46318;52.716;6.444;2023-08-06T02:19:21;12.38;;;11.10;;
60472;SDS011;46318;52.716;6.444;2023-08-06T02:21:47;12.25;;;9.77;;
60472;SDS011;46318;52.716;6.444;2023-08-06T02:24:13;12.38;;;10.23;;
60472;SDS011;46318;52.716;6.444;2023-08-06T02:26:38;11.52;;;10.23;;
60472;SDS011;46318;52.716;6.444;2023-08-06T02:29:04;11.70;;;10.38;;
60472;SDS011;46318;52.716;6.444;2023-08-06T02:31:30;12.07;;;10.70;;
60472;SDS011;46318;52.716;6.444;2023-08-06T02:33:56;11.15;;;10.05;;
60472;SDS011;46318;52.716;6.444;2023-08-06T02:36:25;15.63;;;12.18;;
60472;SDS011;46318;52.716;6.444;2023-08-06T02:38:54;11.95;;;10.40;;
60472;SDS011;46318;52.716;6.444;2023-08-06T02:41:20;11.05;;;9.95;;
60472;SDS011;46318;52.716;6.444;2023-08-06T02:43:46;12.48;;;11.07;;
60472;SDS011;46318;52.716;6.444;2023-08-06T02:46:12;13.00;;;10.45;;
60472;SDS011;46318;52.716;6.444;2023-08-06T02:48:38;11.68;;;10.48;;
60472;SDS011;46318;52.716;6.444;2023-08-06T02:51:04;12.70;;;11.50;;
60472;SDS011;46318;52.716;6.444;2023-08-06T02:53:29;10.63;;;9.57;;
60472;SDS011;46318;52.716;6.444;2023-08-06T02:55:56;12.95;;;11.57;;
60472;SDS011;46318;52.716;6.444;2023-08-06T02:58:23;12.18;;;10.98;;
60472;SDS011;46318;52.716;6.444;2023-08-06T03:01:02;12.57;;;10.48;;
60472;SDS011;46318;52.716;6.444;2023-08-06T03:03:32;13.52;;;10.05;;
60472;SDS011;46318;52.716;6.444;2023-08-06T03:05:58;14.65;;;10.38;;
60472;SDS011;46318;52.716;6.444;2023-08-06T03:08:25;10.55;;;9.45;;
60472;SDS011;46318;52.716;6.444;2023-08-06T03:10:51;11.35;;;9.88;;
60472;SDS011;46318;52.716;6.444;2023-08-06T03:13:18;13.30;;;11.30;;
60472;SDS011;46318;52.716;6.444;2023-08-06T03:15:57;12.55;;;9.98;;
60472;SDS011;46318;52.716;6.444;2023-08-06T03:18:24;9.90;;;8.90;;
60472;SDS011;46318;52.716;6.444;2023-08-06T03:20:51;10.27;;;9.25;;
60472;SDS011;46318;52.716;6.444;2023-08-06T03:23:17;10.52;;;9.63;;
60472;SDS011;46318;52.716;6.444;2023-08-06T03:25:44;11.68;;;9.45;;
60472;SDS011;46318;52.716;6.444;2023-08-06T03:28:10;10.88;;;9.32;;
60472;SDS011;46318;52.716;6.444;2023-08-06T03:30:36;11.57;;;9.88;;
60472;SDS011;46318;52.716;6.444;2023-08-06T03:33:02;11.55;;;10.32;;
60472;SDS011;46318;52.716;6.444;2023-08-06T03:35:28;12.50;;;10.93;;
60472;SDS011;46318;52.716;6.444;2023-08-06T03:37:54;11.00;;;9.85;;
60472;SDS011;46318;52.716;6.444;2023-08-06T03:40:20;11.13;;;8.45;;
60472;SDS011;46318;52.716;6.444;2023-08-06T03:42:46;10.30;;;8.95;;
60472;SDS011;46318;52.716;6.444;2023-08-06T03:45:12;10.13;;;9.10;;
60472;SDS011;46318;52.716;6.444;2023-08-06T03:47:37;11.38;;;10.30;;
60472;SDS011;46318;52.716;6.444;2023-08-06T03:50:03;11.32;;;9.68;;
60472;SDS011;46318;52.716;6.444;2023-08-06T03:52:30;12.13;;;10.93;;
60472;SDS011;46318;52.716;6.444;2023-08-06T03:54:56;13.15;;;10.20;;
60472;SDS011;46318;52.716;6.444;2023-08-06T03:57:21;12.88;;;10.73;;
60472;SDS011;46318;52.716;6.444;2023-08-06T03:59:47;11.27;;;10.18;;
60472;SDS011;46318;52.716;6.444;2023-08-06T04:02:13;10.05;;;9.07;;
60472;SDS011;46318;52.716;6.444;2023-08-06T04:04:39;12.20;;;10.77;;
60472;SDS011;46318;52.716;6.444;2023-08-06T04:07:05;12.60;;;11.25;;
60472;SDS011;46318;52.716;6.444;2023-08-06T04:09:31;11.05;;;9.95;;
60472;SDS011;46318;52.716;6.444;2023-08-06T04:11:57;12.27;;;10.82;;
60472;SDS011;46318;52.716;6.444;2023-08-06T04:14:24;13.15;;;11.60;;
60472;SDS011;46318;52.716;6.444;2023-08-06T04:16:51;11.90;;;10.55;;
60472;SDS011;46318;52.716;6.444;2023-08-06T04:19:17;11.60;;;10.50;;
60472;SDS011;46318;52.716;6.444;2023-08-06T04:21:43;12.10;;;10.85;;
60472;SDS011;46318;52.716;6.444;2023-08-06T04:24:09;11.55;;;10.52;;
60472;SDS011;46318;52.716;6.444;2023-08-06T04:26:35;13.35;;;12.05;;
60472;SDS011;46318;52.716;6.444;2023-08-06T04:29:01;12.20;;;10.90;;
60472;SDS011;46318;52.716;6.444;2023-08-06T04:31:28;12.07;;;10.88;;
60472;SDS011;46318;52.716;6.444;2023-08-06T04:33:54;11.40;;;10.30;;
60472;SDS011;46318;52.716;6.444;2023-08-06T04:36:23;13.02;;;11.13;;
60472;SDS011;46318;52.716;6.444;2023-08-06T04:38:49;12.50;;;11.30;;
60472;SDS011;46318;52.716;6.444;2023-08-06T04:41:14;11.95;;;10.40;;
60472;SDS011;46318;52.716;6.444;2023-08-06T04:43:41;10.95;;;10.00;;
60472;SDS011;46318;52.716;6.444;2023-08-06T04:46:07;12.75;;;10.60;;
60472;SDS011;46318;52.716;6.444;2023-08-06T04:48:33;12.15;;;10.93;;
60472;SDS011;46318;52.716;6.444;2023-08-06T04:50:59;12.75;;;11.27;;
60472;SDS011;46318;52.716;6.444;2023-08-06T04:53:25;11.50;;;9.95;;
60472;SDS011;46318;52.716;6.444;2023-08-06T04:55:51;12.55;;;11.30;;
60472;SDS011;46318;52.716;6.444;2023-08-06T04:58:17;12.32;;;10.40;;
60472;SDS011;46318;52.716;6.444;2023-08-06T05:00:43;13.48;;;11.13;;
60472;SDS011;46318;52.716;6.444;2023-08-06T05:03:09;12.27;;;10.77;;
60472;SDS011;46318;52.716;6.444;2023-08-06T05:05:35;13.52;;;11.88;;
60472;SDS011;46318;52.716;6.444;2023-08-06T05:08:01;13.25;;;11.80;;
60472;SDS011;46318;52.716;6.444;2023-08-06T05:10:27;12.85;;;11.60;;
60472;SDS011;46318;52.716;6.444;2023-08-06T05:12:53;11.68;;;9.98;;
60472;SDS011;46318;52.716;6.444;2023-08-06T05:15:20;11.80;;;10.70;;
60472;SDS011;46318;52.716;6.444;2023-08-06T05:17:46;11.90;;;10.68;;
60472;SDS011;46318;52.716;6.444;2023-08-06T05:20:12;12.07;;;11.00;;
60472;SDS011;46318;52.716;6.444;2023-08-06T05:22:40;11.95;;;10.80;;
60472;SDS011;46318;52.716;6.444;2023-08-06T05:25:07;11.82;;;10.73;;
60472;SDS011;46318;52.716;6.444;2023-08-06T05:27:33;13.15;;;11.80;;
60472;SDS011;46318;52.716;6.444;2023-08-06T05:30:04;12.45;;;11.25;;
60472;SDS011;46318;52.716;6.444;2023-08-06T05:32:31;14.93;;;11.07;;
60472;SDS011;46318;52.716;6.444;2023-08-06T05:34:57;14.07;;;11.13;;
60472;SDS011;46318;52.716;6.444;2023-08-06T05:37:23;12.38;;;11.18;;
60472;SDS011;46318;52.716;6.444;2023-08-06T05:39:49;11.82;;;10.68;;
60472;SDS011;46318;52.716;6.444;2023-08-06T05:42:15;13.20;;;11.90;;
60472;SDS011;46318;52.716;6.444;2023-08-06T05:44:41;13.77;;;12.38;;
60472;SDS011;46318;52.716;6.444;2023-08-06T05:47:07;12.77;;;11.27;;
60472;SDS011;46318;52.716;6.444;2023-08-06T05:49:33;13.38;;;12.02;;
60472;SDS011;46318;52.716;6.444;2023-08-06T05:51:59;12.73;;;11.52;;
60472;SDS011;46318;52.716;6.444;2023-08-06T05:54:25;14.55;;;12.68;;
60472;SDS011;46318;52.716;6.444;2023-08-06T05:56:51;12.68;;;11.45;;
60472;SDS011;46318;52.716;6.444;2023-08-06T05:59:17;13.27;;;11.98;;
60472;SDS011;46318;52.716;6.444;2023-08-06T06:01:43;13.18;;;11.02;;
60472;SDS011;46318;52.716;6.444;2023-08-06T06:04:09;13.60;;;12.00;;
60472;SDS011;46318;52.716;6.444;2023-08-06T06:06:35;13.43;;;12.13;;
60472;SDS011;46318;52.716;6.444;2023-08-06T06:09:01;13.32;;;11.90;;
60472;SDS011;46318;52.716;6.444;2023-08-06T06:11:27;15.10;;;13.60;;
60472;SDS011;46318;52.716;6.444;2023-08-06T06:13:53;14.85;;;13.45;;
60472;SDS011;46318;52.716;6.444;2023-08-06T06:16:20;15.68;;;13.07;;
60472;SDS011;46318;52.716;6.444;2023-08-06T06:18:46;12.82;;;11.63;;
60472;SDS011;46318;52.716;6.444;2023-08-06T06:21:12;15.13;;;13.73;;
60472;SDS011;46318;52.716;6.444;2023-08-06T06:23:38;14.48;;;13.20;;
60472;SDS011;46318;52.716;6.444;2023-08-06T06:26:04;15.43;;;14.02;;
60472;SDS011;46318;52.716;6.444;2023-08-06T06:28:31;15.23;;;13.77;;
60472;SDS011;46318;52.716;6.444;2023-08-06T06:31:00;15.10;;;13.60;;
60472;SDS011;46318;52.716;6.444;2023-08-06T06:33:27;15.43;;;13.77;;
60472;SDS011;46318;52.716;6.444;2023-08-06T06:35:53;15.27;;;13.88;;
60472;SDS011;46318;52.716;6.444;2023-08-06T06:38:19;16.42;;;14.80;;
60472;SDS011;46318;52.716;6.444;2023-08-06T06:40:54;14.15;;;12.75;;
60472;SDS011;46318;52.716;6.444;2023-08-06T06:43:22;14.88;;;13.57;;
60472;SDS011;46318;52.716;6.444;2023-08-06T06:45:52;17.05;;;15.55;;
60472;SDS011;46318;52.716;6.444;2023-08-06T06:48:22;16.17;;;14.60;;
60472;SDS011;46318;52.716;6.444;2023-08-06T06:50:52;15.48;;;14.13;;
60472;SDS011;46318;52.716;6.444;2023-08-06T06:53:17;17.05;;;15.45;;
60472;SDS011;46318;52.716;6.444;2023-08-06T06:55:48;16.80;;;15.18;;
60472;SDS011;46318;52.716;6.444;2023-08-06T06:58:15;15.27;;;13.85;;
60472;SDS011;46318;52.716;6.444;2023-08-06T07:00:44;16.27;;;14.88;;
60472;SDS011;46318;52.716;6.444;2023-08-06T07:03:12;16.42;;;14.82;;
60472;SDS011;46318;52.716;6.444;2023-08-06T07:05:47;17.73;;;16.13;;
60472;SDS011;46318;52.716;6.444;2023-08-06T07:08:14;15.25;;;13.75;;
60472;SDS011;46318;52.716;6.444;2023-08-06T07:10:40;17.80;;;16.13;;
60472;SDS011;46318;52.716;6.444;2023-08-06T07:13:07;17.83;;;16.23;;
60472;SDS011;46318;52.716;6.444;2023-08-06T07:15:34;17.15;;;15.55;;
60472;SDS011;46318;52.716;6.444;2023-08-06T07:18:02;17.75;;;16.23;;
60472;SDS011;46318;52.716;6.444;2023-08-06T07:20:28;18.23;;;16.63;;
60472;SDS011;46318;52.716;6.444;2023-08-06T07:22:57;18.08;;;16.48;;
60472;SDS011;46318;52.716;6.444;2023-08-06T07:25:24;16.40;;;14.80;;
60472;SDS011;46318;52.716;6.444;2023-08-06T07:27:49;19.88;;;18.08;;
60472;SDS011;46318;52.716;6.444;2023-08-06T07:30:22;18.65;;;16.75;;
60472;SDS011;46318;52.716;6.444;2023-08-06T07:32:48;17.33;;;15.40;;
60472;SDS011;46318;52.716;6.444;2023-08-06T07:35:14;18.88;;;17.17;;
60472;SDS011;46318;52.716;6.444;2023-08-06T07:37:40;18.17;;;16.50;;
60472;SDS011;46318;52.716;6.444;2023-08-06T07:40:06;18.05;;;16.25;;
60472;SDS011;46318;52.716;6.444;2023-08-06T07:42:33;17.98;;;16.27;;
60472;SDS011;46318;52.716;6.444;2023-08-06T07:44:59;18.88;;;17.27;;
60472;SDS011;46318;52.716;6.444;2023-08-06T07:47:29;19.52;;;17.63;;
60472;SDS011;46318;52.716;6.444;2023-08-06T07:50:00;18.60;;;16.85;;
60472;SDS011;46318;52.716;6.444;2023-08-06T07:52:29;20.48;;;18.58;;
60472;SDS011;46318;52.716;6.444;2023-08-06T07:54:55;20.60;;;18.63;;
60472;SDS011;46318;52.716;6.444;2023-08-06T07:57:40;18.85;;;17.05;;
60472;SDS011;46318;52.716;6.444;2023-08-06T08:00:07;19.10;;;17.23;;
60472;SDS011;46318;52.716;6.444;2023-08-06T08:02:34;19.52;;;17.63;;
60472;SDS011;46318;52.716;6.444;2023-08-06T08:05:00;18.52;;;16.83;;
60472;SDS011;46318;52.716;6.444;2023-08-06T08:07:26;18.85;;;17.00;;
60472;SDS011;46318;52.716;6.444;2023-08-06T08:09:55;16.75;;;15.02;;
60472;SDS011;46318;52.716;6.444;2023-08-06T08:12:30;19.92;;;18.02;;
60472;SDS011;46318;52.716;6.444;2023-08-06T08:14:56;19.60;;;17.65;;
60472;SDS011;46318;52.716;6.444;2023-08-06T08:17:24;20.27;;;18.23;;
60472;SDS011;46318;52.716;6.444;2023-08-06T08:19:50;19.23;;;17.52;;
60472;SDS011;46318;52.716;6.444;2023-08-06T08:22:16;19.55;;;17.75;;
60472;SDS011;46318;52.716;6.444;2023-08-06T08:24:45;19.63;;;17.73;;
60472;SDS011;46318;52.716;6.444;2023-08-06T08:27:11;19.70;;;17.80;;
60472;SDS011;46318;52.716;6.444;2023-08-06T08:29:39;18.92;;;17.23;;
60472;SDS011;46318;52.716;6.444;2023-08-06T08:32:17;19.20;;;17.30;;
60472;SDS011;46318;52.716;6.444;2023-08-06T08:34:49;18.42;;;16.83;;
60472;SDS011;46318;52.716;6.444;2023-08-06T08:37:18;18.88;;;16.77;;
60472;SDS011;46318;52.716;6.444;2023-08-06T08:39:47;19.52;;;17.75;;
60472;SDS011;46318;52.716;6.444;2023-08-06T08:42:13;18.92;;;17.13;;
60472;SDS011;46318;52.716;6.444;2023-08-06T08:44:39;17.98;;;16.38;;
60472;SDS011;46318;52.716;6.444;2023-08-06T08:47:10;18.52;;;16.85;;
60472;SDS011;46318;52.716;6.444;2023-08-06T08:49:44;18.20;;;16.50;;
60472;SDS011;46318;52.716;6.444;2023-08-06T08:52:11;17.40;;;15.77;;
60472;SDS011;46318;52.716;6.444;2023-08-06T08:54:40;17.90;;;16.20;;
60472;SDS011;46318;52.716;6.444;2023-08-06T08:57:07;17.30;;;15.63;;
60472;SDS011;46318;52.716;6.444;2023-08-06T08:59:40;19.42;;;17.58;;
60472;SDS011;46318;52.716;6.444;2023-08-06T09:02:12;17.17;;;15.48;;
60472;SDS011;46318;52.716;6.444;2023-08-06T09:04:44;17.20;;;15.63;;
60472;SDS011;46318;52.716;6.444;2023-08-06T09:07:17;16.65;;;15.05;;
60472;SDS011;46318;52.716;6.444;2023-08-06T09:09:46;16.80;;;14.98;;
60472;SDS011;46318;52.716;6.444;2023-08-06T09:12:30;15.57;;;14.05;;
60472;SDS011;46318;52.716;6.444;2023-08-06T09:14:57;16.98;;;15.38;;
60472;SDS011;46318;52.716;6.444;2023-08-06T09:17:29;15.48;;;13.88;;
60472;SDS011;46318;52.716;6.444;2023-08-06T09:19:55;15.23;;;13.82;;
60472;SDS011;46318;52.716;6.444;2023-08-06T09:22:27;15.02;;;13.63;;
60472;SDS011;46318;52.716;6.444;2023-08-06T09:25:10;14.60;;;13.27;;
60472;SDS011;46318;52.716;6.444;2023-08-06T09:27:57;14.07;;;12.80;;
60472;SDS011;46318;52.716;6.444;2023-08-06T09:30:28;13.55;;;12.30;;
60472;SDS011;46318;52.716;6.444;2023-08-06T09:33:02;12.70;;;11.70;;
60472;SDS011;46318;52.716;6.444;2023-08-06T09:35:33;13.90;;;12.75;;
60472;SDS011;46318;52.716;6.444;2023-08-06T09:38:07;14.23;;;13.02;;
60472;SDS011;46318;52.716;6.444;2023-08-06T09:40:38;12.30;;;11.10;;
60472;SDS011;46318;52.716;6.444;2023-08-06T09:43:30;13.60;;;12.30;;
60472;SDS011;46318;52.716;6.444;2023-08-06T09:46:14;11.52;;;10.63;;
60472;SDS011;46318;52.716;6.444;2023-08-06T09:48:44;12.15;;;11.15;;
60472;SDS011;46318;52.716;6.444;2023-08-06T09:51:13;12.30;;;11.07;;
60472;SDS011;46318;52.716;6.444;2023-08-06T09:53:42;11.65;;;10.70;;
60472;SDS011;46318;52.716;6.444;2023-08-06T09:56:10;11.50;;;10.50;;
60472;SDS011;46318;52.716;6.444;2023-08-06T09:58:39;10.88;;;10.02;;
60472;SDS011;46318;52.716;6.444;2023-08-06T10:01:07;10.63;;;9.73;;
60472;SDS011;46318;52.716;6.444;2023-08-06T10:03:36;10.93;;;10.13;;
60472;SDS011;46318;52.716;6.444;2023-08-06T10:06:04;11.15;;;10.15;;
60472;SDS011;46318;52.716;6.444;2023-08-06T10:08:33;11.13;;;10.23;;
60472;SDS011;46318;52.716;6.444;2023-08-06T10:11:02;10.00;;;9.20;;
60472;SDS011;46318;52.716;6.444;2023-08-06T10:15:58;9.85;;;9.07;;
60472;SDS011;46318;52.716;6.444;2023-08-06T10:18:28;11.40;;;10.50;;
60472;SDS011;46318;52.716;6.444;2023-08-06T10:20:58;11.57;;;10.48;;
60472;SDS011;46318;52.716;6.444;2023-08-06T10:23:35;10.70;;;9.77;;
60472;SDS011;46318;52.716;6.444;2023-08-06T10:26:03;9.73;;;8.98;;
60472;SDS011;46318;52.716;6.444;2023-08-06T10:28:41;8.82;;;8.02;;
60472;SDS011;46318;52.716;6.444;2023-08-06T10:31:10;9.77;;;9.07;;
60472;SDS011;46318;52.716;6.444;2023-08-06T10:33:46;9.00;;;8.25;;
60472;SDS011;46318;52.716;6.444;2023-08-06T10:36:13;9.13;;;8.45;;
60472;SDS011;46318;52.716;6.444;2023-08-06T10:38:43;8.73;;;8.02;;
60472;SDS011;46318;52.716;6.444;2023-08-06T10:41:15;8.75;;;8.00;;
60472;SDS011;46318;52.716;6.444;2023-08-06T10:44:09;8.70;;;7.80;;
60472;SDS011;46318;52.716;6.444;2023-08-06T10:46:36;8.00;;;7.50;;
60472;SDS011;46318;52.716;6.444;2023-08-06T10:49:03;8.45;;;7.78;;
60472;SDS011;46318;52.716;6.444;2023-08-06T10:51:35;7.47;;;6.78;;
60472;SDS011;46318;52.716;6.444;2023-08-06T10:54:04;7.80;;;7.15;;
60472;SDS011;46318;52.716;6.444;2023-08-06T10:56:39;6.90;;;6.40;;
60472;SDS011;46318;52.716;6.444;2023-08-06T10:59:07;7.95;;;7.18;;
60472;SDS011;46318;52.716;6.444;2023-08-06T11:01:35;7.63;;;7.03;;
60472;SDS011;46318;52.716;6.444;2023-08-06T11:04:04;7.30;;;6.70;;
60472;SDS011;46318;52.716;6.444;2023-08-06T11:06:30;7.35;;;6.70;;
60472;SDS011;46318;52.716;6.444;2023-08-06T11:08:56;6.80;;;6.30;;
60472;SDS011;46318;52.716;6.444;2023-08-06T11:11:22;6.85;;;6.25;;
60472;SDS011;46318;52.716;6.444;2023-08-06T11:13:49;7.43;;;6.82;;
60472;SDS011;46318;52.716;6.444;2023-08-06T11:16:17;7.10;;;6.60;;
60472;SDS011;46318;52.716;6.444;2023-08-06T11:18:52;6.55;;;6.10;;
60472;SDS011;46318;52.716;6.444;2023-08-06T11:21:22;6.97;;;6.45;;
60472;SDS011;46318;52.716;6.444;2023-08-06T11:23:51;7.40;;;6.72;;
60472;SDS011;46318;52.716;6.444;2023-08-06T11:26:19;6.38;;;5.88;;
60472;SDS011;46318;52.716;6.444;2023-08-06T11:28:45;6.70;;;6.20;;
60472;SDS011;46318;52.716;6.444;2023-08-06T11:31:21;6.97;;;6.30;;
60472;SDS011;46318;52.716;6.444;2023-08-06T11:33:54;5.82;;;5.40;;
60472;SDS011;46318;52.716;6.444;2023-08-06T11:36:30;6.20;;;5.75;;
60472;SDS011;46318;52.716;6.444;2023-08-06T11:39:00;6.18;;;5.60;;
60472;SDS011;46318;52.716;6.444;2023-08-06T11:41:28;5.60;;;5.20;;
60472;SDS011;46318;52.716;6.444;2023-08-06T11:43:58;5.25;;;4.72;;
60472;SDS011;46318;52.716;6.444;2023-08-06T11:46:24;5.00;;;4.70;;
60472;SDS011;46318;52.716;6.444;2023-08-06T11:48:57;4.63;;;4.25;;
60472;SDS011;46318;52.716;6.444;2023-08-06T11:51:25;4.95;;;4.30;;
60472;SDS011;46318;52.716;6.444;2023-08-06T11:53:57;3.88;;;3.47;;
60472;SDS011;46318;52.716;6.444;2023-08-06T11:56:24;4.70;;;4.30;;
60472;SDS011;46318;52.716;6.444;2023-08-06T11:58:51;4.40;;;4.00;;
60472;SDS011;46318;52.716;6.444;2023-08-06T12:01:18;4.40;;;4.00;;
60472;SDS011;46318;52.716;6.444;2023-08-06T12:03:44;3.80;;;3.50;;
60472;SDS011;46318;52.716;6.444;2023-08-06T12:06:10;4.55;;;3.60;;
60472;SDS011;46318;52.716;6.444;2023-08-06T12:08:36;3.42;;;3.13;;
60472;SDS011;46318;52.716;6.444;2023-08-06T12:11:03;3.78;;;3.38;;
60472;SDS011;46318;52.716;6.444;2023-08-06T12:13:30;5.20;;;3.40;;
60472;SDS011;46318;52.716;6.444;2023-08-06T12:15:56;3.83;;;3.22;;
60472;SDS011;46318;52.716;6.444;2023-08-06T12:18:23;3.47;;;3.08;;
60472;SDS011;46318;52.716;6.444;2023-08-06T12:20:49;3.35;;;3.10;;
60472;SDS011;46318;52.716;6.444;2023-08-06T12:23:18;3.35;;;3.10;;
60472;SDS011;46318;52.716;6.444;2023-08-06T12:25:44;3.08;;;2.88;;
60472;SDS011;46318;52.716;6.444;2023-08-06T12:28:10;3.33;;;2.80;;
60472;SDS011;46318;52.716;6.444;2023-08-06T12:30:43;3.50;;;3.20;;
60472;SDS011;46318;52.716;6.444;2023-08-06T12:33:13;3.28;;;3.00;;
60472;SDS011;46318;52.716;6.444;2023-08-06T12:35:38;2.67;;;2.47;;
60472;SDS011;46318;52.716;6.444;2023-08-06T12:38:04;2.78;;;2.58;;
60472;SDS011;46318;52.716;6.444;2023-08-06T12:40:30;3.00;;;2.80;;
60472;SDS011;46318;52.716;6.444;2023-08-06T12:42:56;2.72;;;2.53;;
60472;SDS011;46318;52.716;6.444;2023-08-06T12:45:26;2.90;;;2.70;;
60472;SDS011;46318;52.716;6.444;2023-08-06T12:47:52;3.78;;;2.88;;
60472;SDS011;46318;52.716;6.444;2023-08-06T12:50:21;3.80;;;2.80;;
60472;SDS011;46318;52.716;6.444;2023-08-06T12:52:50;3.28;;;3.00;;
60472;SDS011;46318;52.716;6.444;2023-08-06T12:55:15;3.10;;;2.78;;
60472;SDS011;46318;52.716;6.444;2023-08-06T12:57:41;2.90;;;2.70;;
60472;SDS011;46318;52.716;6.444;2023-08-06T13:00:07;3.80;;;3.05;;
60472;SDS011;46318;52.716;6.444;2023-08-06T13:02:34;3.33;;;3.08;;
60472;SDS011;46318;52.716;6.444;2023-08-06T13:04:59;2.67;;;2.47;;
60472;SDS011;46318;52.716;6.444;2023-08-06T13:07:28;3.40;;;3.10;;
60472;SDS011;46318;52.716;6.444;2023-08-06T13:09:54;4.07;;;3.50;;
60472;SDS011;46318;52.716;6.444;2023-08-06T13:12:20;4.50;;;3.67;;
60472;SDS011;46318;52.716;6.444;2023-08-06T13:14:48;4.13;;;3.67;;
60472;SDS011;46318;52.716;6.444;2023-08-06T13:17:15;3.53;;;3.03;;
60472;SDS011;46318;52.716;6.444;2023-08-06T13:19:40;3.35;;;3.10;;
60472;SDS011;46318;52.716;6.444;2023-08-06T13:22:06;4.30;;;3.95;;
60472;SDS011;46318;52.716;6.444;2023-08-06T13:24:33;4.85;;;3.50;;
60472;SDS011;46318;52.716;6.444;2023-08-06T13:27:02;3.38;;;3.17;;
60472;SDS011;46318;52.716;6.444;2023-08-06T13:29:28;3.00;;;2.80;;
60472;SDS011;46318;52.716;6.444;2023-08-06T13:31:54;3.78;;;3.47;;
60472;SDS011;46318;52.716;6.444;2023-08-06T13:34:33;4.40;;;3.63;;
60472;SDS011;46318;52.716;6.444;2023-08-06T13:38:03;6.28;;;4.00;;
60472;SDS011;46318;52.716;6.444;2023-08-06T13:41:09;5.35;;;4.07;;
60472;SDS011;46318;52.716;6.444;2023-08-06T13:44:36;4.35;;;3.95;;
60472;SDS011;46318;52.716;6.444;2023-08-06T13:47:37;3.70;;;3.40;;
60472;SDS011;46318;52.716;6.444;2023-08-06T13:50:24;4.40;;;4.00;;
60472;SDS011;46318;52.716;6.444;2023-08-06T13:52:53;4.43;;;4.03;;
60472;SDS011;46318;52.716;6.444;2023-08-06T13:55:33;6.55;;;5.80;;
60472;SDS011;46318;52.716;6.444;2023-08-06T13:58:11;10.13;;;9.15;;
60472;SDS011;46318;52.716;6.444;2023-08-06T14:00:42;5.00;;;4.60;;
60472;SDS011;46318;52.716;6.444;2023-08-06T14:03:25;4.78;;;4.05;;
60472;SDS011;46318;52.716;6.444;2023-08-06T14:08:55;4.60;;;4.20;;
60472;SDS011;46318;52.716;6.444;2023-08-06T14:11:42;4.47;;;4.07;;
60472;SDS011;46318;52.716;6.444;2023-08-06T14:14:17;4.88;;;4.38;;
60472;SDS011;46318;52.716;6.444;2023-08-06T14:17:01;4.53;;;4.15;;
60472;SDS011;46318;52.716;6.444;2023-08-06T14:19:27;4.68;;;4.30;;
60472;SDS011;46318;52.716;6.444;2023-08-06T14:21:54;5.38;;;4.90;;
60472;SDS011;46318;52.716;6.444;2023-08-06T14:24:26;5.20;;;4.70;;
60472;SDS011;46318;52.716;6.444;2023-08-06T14:26:52;5.93;;;5.15;;
60472;SDS011;46318;52.716;6.444;2023-08-06T14:29:21;6.45;;;5.85;;
60472;SDS011;46318;52.716;6.444;2023-08-06T14:31:50;7.07;;;6.30;;
60472;SDS011;46318;52.716;6.444;2023-08-06T14:34:17;10.45;;;9.45;;
60472;SDS011;46318;52.716;6.444;2023-08-06T14:36:51;8.70;;;7.97;;
60472;SDS011;46318;52.716;6.444;2023-08-06T14:39:25;7.45;;;6.82;;
60472;SDS011;46318;52.716;6.444;2023-08-06T14:41:51;7.85;;;7.15;;
60472;SDS011;46318;52.716;6.444;2023-08-06T14:44:27;6.60;;;6.10;;
60472;SDS011;46318;52.716;6.444;2023-08-06T14:46:56;6.35;;;5.85;;
60472;SDS011;46318;52.716;6.444;2023-08-06T14:49:26;5.72;;;5.00;;
60472;SDS011;46318;52.716;6.444;2023-08-06T14:52:18;4.80;;;4.40;;
60472;SDS011;46318;52.716;6.444;2023-08-06T14:54:44;4.90;;;4.40;;
60472;SDS011;46318;52.716;6.444;2023-08-06T14:57:17;4.45;;;4.05;;